createdAt,value
2023-05-16T00:01:02.526Z,1.40
2023-05-16T00:03:30.899Z,1.30
2023-05-16T00:05:58.128Z,1.35
2023-05-16T00:08:24.827Z,1.30
2023-05-16T00:10:51.375Z,1.20
2023-05-16T00:13:22.311Z,1.40
2023-05-16T00:15:48.894Z,1.38
2023-05-16T00:18:16.726Z,1.38
2023-05-16T00:20:43.372Z,1.30
2023-05-16T00:23:09.967Z,1.20
2023-05-16T00:25:37.501Z,1.40
2023-05-16T00:28:04.145Z,1.15
2023-05-16T00:30:30.765Z,1.20
2023-05-16T00:32:57.398Z,1.27
2023-05-16T00:35:24.358Z,1.10
2023-05-16T00:37:51.449Z,1.23
2023-05-16T00:40:18.241Z,1.20
2023-05-16T00:42:44.846Z,1.30
2023-05-16T00:45:12.134Z,1.30
2023-05-16T00:47:38.851Z,1.40
2023-05-16T00:50:06.032Z,1.30
2023-05-16T00:52:33.848Z,1.20
2023-05-16T00:55:01.221Z,1.30
2023-05-16T00:57:27.981Z,1.30
2023-05-16T00:59:54.865Z,1.30
2023-05-16T01:02:21.640Z,1.20
2023-05-16T01:04:48.949Z,1.30
2023-05-16T01:07:15.624Z,1.23
2023-05-16T01:09:42.364Z,1.30
2023-05-16T01:12:16.293Z,1.40
2023-05-16T01:15:10.938Z,1.30
2023-05-16T01:17:59.256Z,1.23
2023-05-16T01:20:55.769Z,1.40
2023-05-16T01:23:34.631Z,1.35
2023-05-16T01:26:16.864Z,1.30
2023-05-16T01:28:46.510Z,1.20
2023-05-16T01:31:13.211Z,1.23
2023-05-16T01:33:39.914Z,1.20
2023-05-16T01:36:26.569Z,1.20
2023-05-16T01:39:11.671Z,1.23
2023-05-16T01:41:41.524Z,1.20
2023-05-16T01:44:17.234Z,1.50
2023-05-16T01:46:47.799Z,1.40
2023-05-16T01:49:25.576Z,1.30
2023-05-16T01:51:56.318Z,1.30
2023-05-16T01:54:26.522Z,1.30
2023-05-16T01:56:56.042Z,1.27
2023-05-16T01:59:24.350Z,1.10
2023-05-16T02:01:54.274Z,1.23
2023-05-16T02:04:21.289Z,1.30
2023-05-16T02:06:48.258Z,1.20
2023-05-16T02:09:14.829Z,1.15
2023-05-16T02:11:41.443Z,1.20
2023-05-16T02:14:08.093Z,1.40
2023-05-16T02:16:34.699Z,1.30
2023-05-16T02:19:01.689Z,1.30
2023-05-16T02:21:28.260Z,1.23
2023-05-16T02:23:54.831Z,1.25
2023-05-16T02:26:21.960Z,1.15
2023-05-16T02:28:49.942Z,1.30
2023-05-16T02:31:45.915Z,1.38
2023-05-16T02:34:12.521Z,1.20
2023-05-16T02:36:39.073Z,1.30
2023-05-16T02:39:05.918Z,1.20
2023-05-16T02:41:33.228Z,1.30
2023-05-16T02:43:59.846Z,1.30
2023-05-16T02:46:30.903Z,1.17
2023-05-16T02:48:57.748Z,1.17
2023-05-16T02:51:26.624Z,1.10
2023-05-16T02:53:54.024Z,1.20
2023-05-16T02:56:21.781Z,1.20
2023-05-16T02:58:50.140Z,1.02
2023-05-16T03:01:17.536Z,1.10
2023-05-16T03:03:44.624Z,1.00
2023-05-16T03:06:11.436Z,1.20
2023-05-16T03:08:38.059Z,1.10
2023-05-16T03:11:04.709Z,1.10
2023-05-16T03:13:31.336Z,1.10
2023-05-16T03:15:58.141Z,1.23
2023-05-16T03:18:24.747Z,1.20
2023-05-16T03:20:53.061Z,1.20
2023-05-16T03:23:22.803Z,1.20
2023-05-16T03:25:49.679Z,1.10
2023-05-16T03:28:18.072Z,1.15
2023-05-16T03:30:44.712Z,1.20
2023-05-16T03:33:11.480Z,1.20
2023-05-16T03:35:38.535Z,1.10
2023-05-16T03:38:05.167Z,1.23
2023-05-16T03:40:31.791Z,1.20
2023-05-16T03:42:58.430Z,1.20
2023-05-16T03:45:25.238Z,1.40
2023-05-16T03:47:52.071Z,1.20
2023-05-16T03:50:18.761Z,1.20
2023-05-16T03:52:45.386Z,1.20
2023-05-16T03:55:14.494Z,1.27
2023-05-16T03:57:42.302Z,1.30
2023-05-16T04:00:12.401Z,1.30
2023-05-16T04:02:42.996Z,1.40
2023-05-16T04:05:10.844Z,1.40
2023-05-16T04:07:38.225Z,1.40
2023-05-16T04:10:06.438Z,1.23
2023-05-16T04:12:33.104Z,1.27
2023-05-16T04:14:59.690Z,1.48
2023-05-16T04:17:26.357Z,1.40
2023-05-16T04:19:53.143Z,1.33
2023-05-16T04:22:22.066Z,1.60
2023-05-16T04:24:49.157Z,1.60
2023-05-16T04:27:15.931Z,1.40
2023-05-16T04:29:42.750Z,1.50
2023-05-16T04:32:09.695Z,1.42
2023-05-16T04:34:39.771Z,1.38
2023-05-16T04:37:08.475Z,1.50
2023-05-16T04:39:36.597Z,1.50
2023-05-16T04:42:04.446Z,1.60
2023-05-16T04:44:31.772Z,1.50
2023-05-16T04:46:58.577Z,1.70
2023-05-16T04:49:25.381Z,1.77
2023-05-16T04:51:52.310Z,1.58
2023-05-16T04:54:18.943Z,1.65
2023-05-16T04:56:45.538Z,1.60
2023-05-16T04:59:12.198Z,1.60
2023-05-16T05:01:39.791Z,1.45
2023-05-16T05:04:06.626Z,1.80
2023-05-16T05:06:33.236Z,1.40
2023-05-16T05:08:59.873Z,1.80
2023-05-16T05:11:27.456Z,1.70
2023-05-16T05:13:54.107Z,1.77
2023-05-16T05:16:20.807Z,1.70
2023-05-16T05:18:47.530Z,1.45
2023-05-16T05:21:14.363Z,1.75
2023-05-16T05:23:41.352Z,1.60
2023-05-16T05:26:08.281Z,1.90
2023-05-16T05:28:34.966Z,1.77
2023-05-16T05:31:01.655Z,1.90
2023-05-16T05:33:31.027Z,1.80
2023-05-16T05:35:57.797Z,1.80
2023-05-16T05:38:24.482Z,2.05
2023-05-16T05:40:51.202Z,1.80
2023-05-16T05:43:17.857Z,2.05
2023-05-16T05:45:44.913Z,1.73
2023-05-16T05:48:12.814Z,2.30
2023-05-16T05:50:39.751Z,2.10
2023-05-16T05:53:06.401Z,1.95
2023-05-16T05:55:33.099Z,1.80
2023-05-16T05:57:59.739Z,1.60
2023-05-16T06:00:26.522Z,1.60
2023-05-16T06:02:53.492Z,1.67
2023-05-16T06:05:20.242Z,1.60
2023-05-16T06:07:46.830Z,1.70
2023-05-16T06:10:13.440Z,1.70
2023-05-16T06:12:40.036Z,1.70
2023-05-16T06:15:07.509Z,1.70
2023-05-16T06:17:34.192Z,1.95
2023-05-16T06:20:00.967Z,2.00
2023-05-16T06:22:27.584Z,1.80
2023-05-16T06:24:54.136Z,1.90
2023-05-16T06:27:20.742Z,1.73
2023-05-16T06:29:47.283Z,1.90
2023-05-16T06:32:13.830Z,1.92
2023-05-16T06:34:40.514Z,1.75
2023-05-16T06:37:07.111Z,1.90
2023-05-16T06:39:33.808Z,1.90
2023-05-16T06:42:00.929Z,1.80
2023-05-16T06:44:27.803Z,2.00
2023-05-16T06:46:54.595Z,1.95
2023-05-16T06:49:21.482Z,2.00
2023-05-16T06:51:48.128Z,2.00
2023-05-16T06:54:15.155Z,2.00
2023-05-16T06:56:41.936Z,2.30
2023-05-16T06:59:08.591Z,2.00
2023-05-16T07:01:35.580Z,2.00
2023-05-16T07:04:02.674Z,2.00
2023-05-16T07:06:29.594Z,1.90
2023-05-16T07:08:56.173Z,2.00
2023-05-16T07:11:22.833Z,1.92
2023-05-16T07:13:49.696Z,1.98
2023-05-16T07:16:16.392Z,2.10
2023-05-16T07:18:43.580Z,2.13
2023-05-16T07:21:10.195Z,2.70
2023-05-16T07:23:36.841Z,2.13
2023-05-16T07:26:03.820Z,2.10
2023-05-16T07:28:30.641Z,2.55
2023-05-16T07:30:58.882Z,2.00
2023-05-16T07:33:25.802Z,2.08
2023-05-16T07:36:00.883Z,1.73
2023-05-16T07:38:34.951Z,2.03
2023-05-16T07:41:01.656Z,2.00
2023-05-16T07:43:28.452Z,2.00
2023-05-16T07:45:56.432Z,2.10
2023-05-16T07:48:23.193Z,2.03
2023-05-16T07:50:49.830Z,2.10
2023-05-16T07:53:16.593Z,2.20
2023-05-16T07:55:43.278Z,1.98
2023-05-16T07:58:10.000Z,2.15
2023-05-16T08:00:36.752Z,2.20
2023-05-16T08:03:03.786Z,2.40
2023-05-16T08:05:30.962Z,2.15
2023-05-16T08:07:58.603Z,2.10
2023-05-16T08:10:25.819Z,2.22
2023-05-16T08:12:53.881Z,2.08
2023-05-16T08:15:21.680Z,2.60
2023-05-16T08:17:48.493Z,2.47
2023-05-16T08:20:15.770Z,2.58
2023-05-16T08:22:42.407Z,2.80
2023-05-16T08:25:09.284Z,2.50
2023-05-16T08:27:36.148Z,2.58
2023-05-16T08:30:03.153Z,2.30
2023-05-16T08:32:29.798Z,2.80
2023-05-16T08:34:56.522Z,2.90
2023-05-16T08:37:23.172Z,2.42
2023-05-16T08:39:49.945Z,2.50
2023-05-16T08:42:16.753Z,2.67
2023-05-16T08:44:43.486Z,3.15
2023-05-16T08:47:19.258Z,2.72
2023-05-16T08:49:48.533Z,2.80
2023-05-16T08:52:19.618Z,2.70
2023-05-16T08:54:50.393Z,2.95
2023-05-16T08:57:22.246Z,2.97
2023-05-16T08:59:49.633Z,3.25
2023-05-16T09:02:16.319Z,2.90
2023-05-16T09:04:44.640Z,2.80
2023-05-16T09:07:11.438Z,2.92
2023-05-16T09:09:38.041Z,2.72
2023-05-16T09:12:04.907Z,2.85
2023-05-16T09:14:31.549Z,3.50
2023-05-16T09:17:12.152Z,2.95
2023-05-16T09:19:41.014Z,3.10
2023-05-16T09:22:15.164Z,3.28
2023-05-16T09:24:46.104Z,2.95
2023-05-16T09:27:14.669Z,3.33
2023-05-16T09:29:42.724Z,3.10
2023-05-16T09:32:16.711Z,2.65
2023-05-16T09:34:49.261Z,3.05
2023-05-16T09:37:16.406Z,3.03
2023-05-16T09:39:48.008Z,3.30
2023-05-16T09:42:16.488Z,3.47
2023-05-16T09:44:54.959Z,3.13
2023-05-16T09:47:22.298Z,3.22
2023-05-16T09:49:55.182Z,2.95
2023-05-16T09:52:21.991Z,2.80
2023-05-16T09:54:50.035Z,2.97
2023-05-16T09:57:23.676Z,3.22
2023-05-16T09:59:50.570Z,2.95
2023-05-16T10:02:17.678Z,3.20
2023-05-16T10:04:44.360Z,2.95
2023-05-16T10:07:11.353Z,2.97
2023-05-16T10:09:40.740Z,3.10
2023-05-16T10:12:08.783Z,3.05
2023-05-16T10:14:37.715Z,3.30
2023-05-16T10:17:07.139Z,3.03
2023-05-16T10:19:37.622Z,3.10
2023-05-16T10:22:06.891Z,3.20
2023-05-16T10:24:48.185Z,3.40
2023-05-16T10:27:17.333Z,3.03
2023-05-16T10:29:54.358Z,2.80
2023-05-16T10:32:24.447Z,2.75
2023-05-16T10:34:52.372Z,3.03
2023-05-16T10:37:19.157Z,2.85
2023-05-16T10:39:46.556Z,3.08
2023-05-16T10:42:18.268Z,3.10
2023-05-16T10:44:54.682Z,2.97
2023-05-16T10:47:25.163Z,3.30
2023-05-16T10:49:51.814Z,3.15
2023-05-16T10:52:18.437Z,3.38
2023-05-16T10:54:52.121Z,3.40
2023-05-16T10:57:23.790Z,3.38
2023-05-16T10:59:52.198Z,3.15
2023-05-16T11:02:32.195Z,2.95
2023-05-16T11:05:00.495Z,3.17
2023-05-16T11:07:32.711Z,3.03
2023-05-16T11:10:08.311Z,3.00
2023-05-16T11:12:45.072Z,3.65
2023-05-16T11:15:25.539Z,3.55
2023-05-16T11:18:06.364Z,3.30
2023-05-16T11:20:35.029Z,3.83
2023-05-16T11:23:17.071Z,3.80
2023-05-16T11:25:46.477Z,3.78
2023-05-16T11:28:15.462Z,3.65
2023-05-16T11:30:44.765Z,3.92
2023-05-16T11:33:13.064Z,3.95
2023-05-16T11:35:39.770Z,3.55
2023-05-16T11:38:06.434Z,3.35
2023-05-16T11:40:33.136Z,3.42
2023-05-16T11:43:05.755Z,3.47
2023-05-16T11:45:34.460Z,3.10
2023-05-16T11:48:04.633Z,3.30
2023-05-16T11:50:31.688Z,3.30
2023-05-16T11:52:58.425Z,3.60
2023-05-16T12:26:06.987Z,3.83
2023-05-16T12:28:34.938Z,3.47
2023-05-16T12:31:01.684Z,3.67
2023-05-16T12:33:28.417Z,3.33
2023-05-16T12:35:55.441Z,3.38
2023-05-16T12:38:22.367Z,3.67
2023-05-16T12:40:49.052Z,3.45
2023-05-16T12:43:23.210Z,3.38
2023-05-16T12:45:55.202Z,3.20
2023-05-16T12:48:22.961Z,3.13
2023-05-16T12:50:49.911Z,3.05
2023-05-16T12:53:18.415Z,2.88
2023-05-16T12:55:45.356Z,3.13
2023-05-16T12:58:12.951Z,3.42
2023-05-16T13:00:39.773Z,3.17
2023-05-16T13:03:07.808Z,3.17
2023-05-16T13:05:36.338Z,3.10
2023-05-16T13:08:03.485Z,3.20
2023-05-16T13:10:30.333Z,3.42
2023-05-16T13:13:01.550Z,3.13
2023-05-16T13:15:28.790Z,3.13
2023-05-16T13:17:55.872Z,3.30
2023-05-16T13:20:22.551Z,3.22
2023-05-16T13:22:49.337Z,3.03
2023-05-16T13:25:16.227Z,3.20
2023-05-16T13:27:44.954Z,3.17
2023-05-16T13:30:11.937Z,3.40
2023-05-16T13:32:38.863Z,3.33
2023-05-16T13:35:06.179Z,3.25
2023-05-16T13:37:33.087Z,3.40
2023-05-16T13:40:00.071Z,3.50
2023-05-16T13:42:26.860Z,3.85
2023-05-16T13:44:53.546Z,3.67
2023-05-16T13:47:20.159Z,3.28
2023-05-16T13:49:47.671Z,3.22
2023-05-16T13:52:14.910Z,3.30
2023-05-16T13:54:41.554Z,3.45
2023-05-16T13:57:08.385Z,3.25
2023-05-16T14:02:06.201Z,3.35
2023-05-16T14:04:32.925Z,3.25
2023-05-16T14:06:59.566Z,3.20
2023-05-16T14:09:26.194Z,3.40
2023-05-16T14:11:52.848Z,2.83
2023-05-16T14:14:19.506Z,3.47
2023-05-16T14:16:46.522Z,3.58
2023-05-16T14:19:14.892Z,3.10
2023-05-16T14:21:43.301Z,3.33
2023-05-16T14:24:09.953Z,2.95
2023-05-16T14:26:36.628Z,3.30
2023-05-16T14:29:05.885Z,3.53
2023-05-16T14:31:33.605Z,3.35
2023-05-16T14:34:00.273Z,3.60
2023-05-16T14:36:26.938Z,3.47
2023-05-16T14:38:53.599Z,3.35
2023-05-16T14:41:20.212Z,3.53
2023-05-16T14:43:46.918Z,3.60
2023-05-16T14:46:14.000Z,3.42
2023-05-16T14:48:41.289Z,3.58
2023-05-16T14:51:07.981Z,2.90
2023-05-16T14:53:34.677Z,3.53
2023-05-16T14:56:02.882Z,3.00
2023-05-16T14:58:30.482Z,2.78
2023-05-16T15:00:57.173Z,3.10
2023-05-16T15:03:23.917Z,2.72
2023-05-16T15:05:50.538Z,3.00
2023-05-16T15:08:17.227Z,2.90
2023-05-16T15:10:43.934Z,2.60
2023-05-16T15:13:10.936Z,2.90
2023-05-16T15:15:38.903Z,3.05
2023-05-16T15:18:08.835Z,2.95
2023-05-16T15:20:35.489Z,2.60
2023-05-16T15:23:02.107Z,2.63
2023-05-16T15:25:29.069Z,2.75
2023-05-16T15:27:56.381Z,3.03
2023-05-16T15:30:23.147Z,2.70
2023-05-16T15:32:49.832Z,2.85
2023-05-16T15:35:16.494Z,2.90
2023-05-16T15:37:43.816Z,2.90
2023-05-16T15:40:11.214Z,2.88
2023-05-16T15:42:38.275Z,2.58
2023-05-16T15:45:05.360Z,2.90
2023-05-16T15:47:32.212Z,2.70
2023-05-16T15:49:58.845Z,2.63
2023-05-16T15:52:25.532Z,2.75
2023-05-16T15:54:52.170Z,2.78
2023-05-16T15:57:19.250Z,2.88
2023-05-16T15:59:46.436Z,2.58
2023-05-16T16:02:13.094Z,2.90
2023-05-16T16:04:39.836Z,2.70
2023-05-16T16:07:06.512Z,2.58
2023-05-16T16:09:33.136Z,2.92
2023-05-16T16:11:59.769Z,2.85
2023-05-16T16:14:26.413Z,2.90
2023-05-16T16:16:53.037Z,2.78
2023-05-16T16:19:19.734Z,2.75
2023-05-16T16:21:48.964Z,2.85
2023-05-16T16:24:15.919Z,2.65
2023-05-16T16:26:43.395Z,2.70
2023-05-16T16:29:10.084Z,2.53
2023-05-16T16:31:36.832Z,2.65
2023-05-16T16:34:03.598Z,2.55
2023-05-16T16:36:31.962Z,2.25
2023-05-16T16:38:59.502Z,2.80
2023-05-16T16:41:26.287Z,2.30
2023-05-16T16:43:53.102Z,2.20
2023-05-16T16:46:19.859Z,2.50
2023-05-16T16:48:46.517Z,2.40
2023-05-16T16:51:13.160Z,2.35
2023-05-16T16:53:41.074Z,2.33
2023-05-16T16:56:07.725Z,2.30
2023-05-16T16:58:34.449Z,2.13
2023-05-16T17:01:01.269Z,2.17
2023-05-16T17:03:27.960Z,2.35
2023-05-16T17:05:54.652Z,2.13
2023-05-16T17:08:21.671Z,2.25
2023-05-16T17:10:48.328Z,2.20
2023-05-16T17:13:17.255Z,2.13
2023-05-16T17:15:44.236Z,2.60
2023-05-16T17:18:13.141Z,2.08
2023-05-16T17:20:39.955Z,2.30
2023-05-16T17:23:06.662Z,2.28
2023-05-16T17:25:33.274Z,2.20
2023-05-16T17:27:59.995Z,2.13
2023-05-16T17:30:26.729Z,2.22
2023-05-16T17:32:54.165Z,2.30
2023-05-16T17:35:20.929Z,2.25
2023-05-16T17:37:47.910Z,2.00
2023-05-16T17:40:17.004Z,2.22
2023-05-16T17:42:45.033Z,2.47
2023-05-16T17:45:14.860Z,2.30
2023-05-16T17:47:42.129Z,2.50
2023-05-16T17:50:10.407Z,2.42
2023-05-16T17:52:38.613Z,2.08
2023-05-16T17:55:07.230Z,2.10
2023-05-16T17:57:34.322Z,2.47
2023-05-16T18:00:01.751Z,2.05
2023-05-16T18:02:28.739Z,2.15
2023-05-16T18:04:55.849Z,2.13
2023-05-16T18:07:22.703Z,2.05
2023-05-16T18:09:49.461Z,2.15
2023-05-16T18:12:16.222Z,2.10
2023-05-16T18:14:45.282Z,2.00
2023-05-16T18:17:13.438Z,2.10
2023-05-16T18:19:40.316Z,2.10
2023-05-16T18:22:08.908Z,2.08
2023-05-16T18:24:35.963Z,1.83
2023-05-16T18:27:03.280Z,1.92
2023-05-16T18:29:30.418Z,2.08
2023-05-16T18:31:57.822Z,1.90
2023-05-16T18:34:24.651Z,2.10
2023-05-16T18:36:51.308Z,2.20
2023-05-16T18:39:19.080Z,2.20
2023-05-16T18:41:48.263Z,1.90
2023-05-16T18:44:18.470Z,2.20
2023-05-16T18:46:46.588Z,2.10
2023-05-16T18:49:14.230Z,1.98
2023-05-16T18:51:41.109Z,2.03
2023-05-16T18:54:08.075Z,1.88
2023-05-16T18:56:35.206Z,2.20
2023-05-16T18:59:02.082Z,2.00
2023-05-16T19:01:28.932Z,2.40
2023-05-16T19:03:56.251Z,2.00
2023-05-16T19:06:23.441Z,1.90
2023-05-16T19:08:50.534Z,1.85
2023-05-16T19:11:17.945Z,2.17
2023-05-16T19:13:45.974Z,2.00
2023-05-16T19:16:13.170Z,2.00
2023-05-16T19:18:40.410Z,1.80
2023-05-16T19:21:13.795Z,1.90
2023-05-16T19:23:40.930Z,2.08
2023-05-16T19:26:08.002Z,2.10
2023-05-16T19:28:35.028Z,2.20
2023-05-16T19:31:01.844Z,1.95
2023-05-16T19:33:28.670Z,1.90
2023-05-16T19:35:58.750Z,2.25
2023-05-16T19:38:26.802Z,2.17
2023-05-16T19:40:53.932Z,1.73
2023-05-16T19:43:20.937Z,1.80
2023-05-16T19:45:47.970Z,2.03
2023-05-16T19:48:14.992Z,1.83
2023-05-16T19:50:42.593Z,1.90
2023-05-16T19:53:09.590Z,2.05
2023-05-16T19:55:38.241Z,2.00
2023-05-16T19:58:05.295Z,1.95
2023-05-16T20:00:32.469Z,1.80
2023-05-16T20:02:59.603Z,2.00
2023-05-16T20:05:26.648Z,1.92
2023-05-16T20:07:54.658Z,1.90
2023-05-16T20:10:22.222Z,2.10
2023-05-16T20:12:49.195Z,2.10
2023-05-16T20:15:16.475Z,2.05
2023-05-16T20:17:43.199Z,2.15
2023-05-16T20:20:10.418Z,2.15
2023-05-16T20:22:41.480Z,2.20
2023-05-16T20:25:09.965Z,1.73
2023-05-16T20:27:36.925Z,1.75
2023-05-16T20:30:05.149Z,1.90
2023-05-16T20:32:31.964Z,2.10
2023-05-16T20:34:58.652Z,1.95
2023-05-16T20:37:28.236Z,2.05
2023-05-16T20:39:54.990Z,1.70
2023-05-16T20:42:22.107Z,1.75
2023-05-16T20:44:48.885Z,1.80
2023-05-16T20:47:17.141Z,1.70
2023-05-16T20:49:43.843Z,1.60
2023-05-16T20:52:11.194Z,1.80
2023-05-16T20:54:37.889Z,1.67
2023-05-16T20:57:04.997Z,1.52
2023-05-16T20:59:32.395Z,1.50
2023-05-16T21:01:59.107Z,1.50
2023-05-16T21:04:25.949Z,1.40
2023-05-16T21:06:52.582Z,1.40
2023-05-16T21:09:19.310Z,1.27
2023-05-16T21:11:45.947Z,1.40
2023-05-16T21:14:12.727Z,1.52
2023-05-16T21:16:39.293Z,1.30
2023-05-16T21:19:05.999Z,1.30
2023-05-16T21:21:32.934Z,1.30
2023-05-16T21:23:59.740Z,1.20
2023-05-16T21:26:26.412Z,1.30
2023-05-16T21:28:55.408Z,1.30
2023-05-16T21:31:22.977Z,1.15
2023-05-16T21:33:52.242Z,1.30
2023-05-16T21:36:20.181Z,1.17
2023-05-16T21:38:46.955Z,1.20
2023-05-16T21:41:14.584Z,1.20
2023-05-16T21:43:41.340Z,1.30
2023-05-16T21:46:07.988Z,1.13
2023-05-16T21:48:34.802Z,1.20
2023-05-16T21:51:01.785Z,1.08
2023-05-16T21:53:28.423Z,1.00
2023-05-16T21:55:55.086Z,1.10
2023-05-16T21:58:22.123Z,1.20
2023-05-16T22:00:49.591Z,1.20
2023-05-16T22:03:19.191Z,1.20
2023-05-16T22:05:48.641Z,1.20
2023-05-16T22:08:15.414Z,1.10
2023-05-16T22:10:42.396Z,1.10
2023-05-16T22:13:09.179Z,1.10
2023-05-16T22:15:35.852Z,1.08
2023-05-16T22:18:02.834Z,1.10
2023-05-16T22:20:29.841Z,1.13
2023-05-16T22:22:56.677Z,1.10
2023-05-16T22:25:23.624Z,1.10
2023-05-16T22:27:50.358Z,1.00
2023-05-16T22:30:17.047Z,0.95
2023-05-16T22:32:45.808Z,1.00
2023-05-16T22:35:14.071Z,1.00
2023-05-16T22:37:40.796Z,0.90
2023-05-16T22:40:08.350Z,1.10
2023-05-16T22:42:35.037Z,0.90
2023-05-16T22:45:01.708Z,1.10
2023-05-16T22:47:28.934Z,1.10
2023-05-16T22:49:55.679Z,1.02
2023-05-16T22:52:22.353Z,1.00
2023-05-16T22:54:49.024Z,1.00
2023-05-16T22:57:15.781Z,1.10
2023-05-16T22:59:42.918Z,0.93
2023-05-16T23:02:09.553Z,0.90
2023-05-16T23:04:36.245Z,1.00
2023-05-16T23:07:03.284Z,0.90
2023-05-16T23:09:29.856Z,1.00
2023-05-16T23:11:56.485Z,0.90
2023-05-16T23:14:23.089Z,1.00
2023-05-16T23:16:49.682Z,1.00
2023-05-16T23:19:16.404Z,1.00
2023-05-16T23:21:43.262Z,1.17
2023-05-16T23:24:10.028Z,1.10
2023-05-16T23:26:36.661Z,1.00
2023-05-16T23:29:03.485Z,1.10
2023-05-16T23:31:30.096Z,1.08
2023-05-16T23:33:56.760Z,1.05
2023-05-16T23:36:23.442Z,1.10
2023-05-16T23:38:50.062Z,1.20
2023-05-16T23:41:16.748Z,1.20
2023-05-16T23:43:43.359Z,1.17
2023-05-16T23:46:09.934Z,1.00
2023-05-16T23:48:36.689Z,1.20
2023-05-16T23:51:07.361Z,0.93
2023-05-16T23:53:34.981Z,1.10
2023-05-16T23:56:01.580Z,1.00
2023-05-16T23:58:28.302Z,1.10
